Time;durP1;ratioP1;P1;durP2;ratioP2;P2;SDS_P1;SDS_P2;PMS_P1;PMS_P2;Temp;Humidity;BMP_temperature;BMP_pressure;BME280_temperature;BME280_humidity;BME280_pressure;Samples;Min_cycle;Max_cycle;Signal;HPM_P1;HPM_P2
2022/12/12 00:01:46;;;;;;;9.70;8.65;;;;;;;-2.87;100.00;100718.03;10372557;28;20093;-70
2022/12/12 00:06:49;;;;;;;12.20;9.18;;;;;;;-2.95;100.00;100731.56;10372527;28;20410;-70
2022/12/12 00:11:53;;;;;;;9.73;7.53;;;;;;;-3.13;100.00;100728.81;10370297;28;20080;-70
2022/12/12 00:16:55;;;;;;;11.27;7.97;;;;;;;-3.30;100.00;100725.16;10372273;28;20099;-70
2022/12/12 00:21:58;;;;;;;12.93;8.57;;;;;;;-3.47;100.00;100730.03;10372498;28;20086;-69
2022/12/12 00:27:01;;;;;;;9.70;7.65;;;;;;;-3.69;100.00;100734.84;10372406;28;20196;-69
2022/12/12 00:32:05;;;;;;;11.35;8.35;;;;;;;-3.85;100.00;100731.22;10372230;28;20070;-68
2022/12/12 00:37:06;;;;;;;9.73;7.47;;;;;;;-3.99;100.00;100720.78;10371866;28;20413;-69
2022/12/12 00:42:11;;;;;;;10.45;8.45;;;;;;;-3.88;100.00;100732.88;10369802;28;20462;-69
2022/12/12 00:47:13;;;;;;;8.55;7.57;;;;;;;-3.79;100.00;100741.50;10371740;28;20076;-69
2022/12/12 00:52:16;;;;;;;10.43;7.18;;;;;;;-3.97;100.00;100740.38;10377243;28;20076;-69
2022/12/12 00:57:19;;;;;;;21.08;9.32;;;;;;;-4.09;100.00;100738.50;10379862;28;20088;-69
2022/12/12 01:02:21;;;;;;;11.65;8.60;;;;;;;-4.13;100.00;100742.69;10379677;28;20100;-69
2022/12/12 01:07:23;;;;;;;14.85;8.77;;;;;;;-4.09;100.00;100742.72;10378401;28;20068;-70
2022/12/12 01:12:28;;;;;;;10.98;8.40;;;;;;;-3.99;100.00;100751.38;10375452;28;20163;-70
2022/12/12 01:17:34;;;;;;;8.45;7.10;;;;;;;-4.09;100.00;100763.13;10377243;28;20088;-70
2022/12/12 01:22:37;;;;;;;8.57;7.55;;;;;;;-4.10;100.00;100757.19;10378204;28;20067;-70
2022/12/12 01:27:40;;;;;;;12.52;9.70;;;;;;;-4.06;100.00;100758.09;10378112;28;20159;-70
2022/12/12 01:32:43;;;;;;;15.18;9.18;;;;;;;-3.97;100.00;100770.13;10377926;28;20071;-70
2022/12/12 01:37:45;;;;;;;24.83;8.38;;;;;;;-4.12;100.00;100766.50;10378080;28;20077;-70
2022/12/12 01:42:51;;;;;;;9.82;7.50;;;;;;;-4.13;100.00;100772.44;10375093;28;20534;-70
2022/12/12 01:47:53;;;;;;;12.50;9.23;;;;;;;-4.19;100.00;100765.53;10377318;28;20084;-70
2022/12/12 01:52:54;;;;;;;15.63;8.65;;;;;;;-4.03;100.00;100778.53;10377046;28;20660;-70
2022/12/12 01:57:58;;;;;;;11.02;9.95;;;;;;;-4.09;100.00;100781.84;10376472;28;20489;-69
2022/12/12 02:03:00;;;;;;;14.07;9.07;;;;;;;-4.02;100.00;100786.22;10375799;28;20103;-71
2022/12/12 02:08:05;;;;;;;9.02;8.15;;;;;;;-4.07;100.00;100789.53;10373942;28;20068;-70
2022/12/12 02:13:14;;;;;;;9.52;8.05;;;;;;;-4.08;100.00;100782.72;10375943;28;20464;-70
2022/12/12 02:18:26;;;;;;;10.68;9.05;;;;;;;-4.13;100.00;100783.47;10375821;28;20088;-70
2022/12/12 02:24:14;;;;;;;12.15;10.10;;;;;;;-4.12;100.00;100797.06;10375678;28;20069;-70
2022/12/12 02:30:05;;;;;;;10.85;9.32;;;;;;;-4.20;100.00;100791.84;10375805;28;20460;-70
2022/12/12 02:35:19;;;;;;;12.30;9.38;;;;;;;-4.25;100.00;100787.50;10375308;28;20077;-70
2022/12/12 02:40:31;;;;;;;21.75;10.05;;;;;;;-4.33;100.00;100797.53;10372947;28;20096;-70
2022/12/12 02:45:41;;;;;;;11.20;9.10;;;;;;;-4.45;100.00;100795.66;10374906;28;20078;-70
2022/12/12 02:50:49;;;;;;;8.27;7.57;;;;;;;-4.55;100.00;100794.63;10373774;28;20111;-70
2022/12/12 02:56:03;;;;;;;11.90;9.68;;;;;;;-4.67;100.00;100795.22;10372292;28;20075;-70
2022/12/12 03:01:27;;;;;;;23.42;10.60;;;;;;;-4.62;100.00;100797.88;10372556;28;20070;-70
2022/12/12 03:12:25;;;;;;;9.60;8.27;;;;;;;-4.57;100.00;100788.63;10369044;28;20061;-71
2022/12/12 03:17:36;;;;;;;11.10;8.88;;;;;;;-4.70;100.00;100780.75;10371887;28;20628;-71
2022/12/12 03:22:49;;;;;;;17.52;9.65;;;;;;;-4.82;100.00;100781.34;10371794;28;20080;-72
2022/12/12 03:28:00;;;;;;;10.45;9.45;;;;;;;-4.81;100.00;100778.00;10372476;28;20075;-71
2022/12/12 03:33:13;;;;;;;12.75;9.68;;;;;;;-4.92;100.00;100780.31;10371973;28;20066;-71
2022/12/12 03:38:23;;;;;;;17.58;11.07;;;;;;;-5.04;100.00;100780.06;10368682;28;20084;-71
2022/12/12 03:43:32;;;;;;;10.05;8.80;;;;;;;-4.97;100.00;100787.00;10370872;28;20517;-71
2022/12/12 03:48:40;;;;;;;9.88;8.88;;;;;;;-4.96;100.00;100787.88;10371546;28;20065;-72
2022/12/12 03:53:52;;;;;;;13.10;9.98;;;;;;;-5.06;100.00;100792.75;10371523;28;20076;-71
2022/12/12 03:59:03;;;;;;;20.52;10.00;;;;;;;-5.08;100.00;100788.44;10370430;28;20091;-71
2022/12/12 04:04:16;;;;;;;25.15;10.73;;;;;;;-5.11;100.00;100790.91;10370449;28;20541;-71
2022/12/12 04:15:19;;;;;;;10.48;9.25;;;;;;;-5.28;100.00;100801.59;10370482;28;20411;-71
2022/12/12 04:31:36;;;;;;;7.82;7.18;;;;;;;-5.49;100.00;100807.94;10378254;28;20307;-71
2022/12/12 04:36:43;;;;;;;12.80;9.50;;;;;;;-5.59;100.00;100813.63;10378659;28;20106;-71
2022/12/12 04:41:51;;;;;;;17.23;9.18;;;;;;;-5.58;100.00;100817.91;10375446;28;20119;-72
2022/12/12 04:46:57;;;;;;;13.65;8.00;;;;;;;-5.51;100.00;100823.97;10377488;28;20102;-71
2022/12/12 04:52:06;;;;;;;8.93;7.70;;;;;;;-5.68;100.00;100821.91;10378020;28;20063;-71
2022/12/12 04:57:17;;;;;;;10.02;8.02;;;;;;;-5.69;100.00;100820.16;10377991;28;20175;-71
2022/12/12 05:02:32;;;;;;;6.90;6.53;;;;;;;-5.79;100.00;100828.41;10377214;28;20632;-72
2022/12/12 05:07:39;;;;;;;10.02;8.70;;;;;;;-5.87;100.00;100825.66;10377067;28;20090;-72
2022/12/12 05:12:44;;;;;;;9.43;8.45;;;;;;;-6.09;100.00;100820.09;10374106;28;20525;-72
2022/12/12 05:17:52;;;;;;;10.15;9.13;;;;;;;-6.15;100.00;100815.69;10376424;28;20573;-72
2022/12/12 05:22:53;;;;;;;9.48;8.57;;;;;;;-6.28;100.00;100814.50;10376508;28;20166;-72
2022/12/12 05:27:57;;;;;;;13.50;9.43;;;;;;;-6.22;100.00;100824.81;10376646;28;20076;-72
2022/12/12 05:32:59;;;;;;;8.73;7.50;;;;;;;-6.11;100.00;100819.16;10376448;28;20079;-72
2022/12/12 05:38:01;;;;;;;10.02;8.50;;;;;;;-6.02;100.00;100826.97;10375208;28;20092;-72
2022/12/12 05:43:05;;;;;;;10.95;8.13;;;;;;;-5.92;100.00;100832.31;10374628;28;20071;-72
2022/12/12 05:48:07;;;;;;;10.43;9.43;;;;;;;-5.97;100.00;100827.97;10376083;28;20081;-73
2022/12/12 05:53:11;;;;;;;7.30;6.55;;;;;;;-6.01;100.00;100830.41;10375753;28;20082;-73
2022/12/12 05:58:14;;;;;;;9.77;6.65;;;;;;;-6.13;100.00;100839.44;10375349;28;20149;-72
2022/12/12 06:03:17;;;;;;;13.52;9.82;;;;;;;-6.28;100.00;100839.91;10374763;28;20099;-73
2022/12/12 06:08:18;;;;;;;8.57;7.80;;;;;;;-6.42;100.00;100846.28;10373415;28;20074;-73
2022/12/12 06:13:22;;;;;;;8.32;7.57;;;;;;;-6.36;100.00;100847.31;10374395;28;20071;-72
2022/12/12 06:18:23;;;;;;;13.60;8.07;;;;;;;-6.37;100.00;100849.84;10374996;28;20092;-72
2022/12/12 06:23:25;;;;;;;7.78;6.50;;;;;;;-6.47;100.00;100848.69;10373872;28;20524;-73
2022/12/12 06:28:28;;;;;;;8.10;7.40;;;;;;;-6.40;100.00;100854.81;10373794;28;20073;-72
2022/12/12 06:33:31;;;;;;;7.65;7.13;;;;;;;-6.35;100.00;100845.66;10374525;28;20084;-72
2022/12/12 06:38:35;;;;;;;10.02;7.70;;;;;;;-6.35;100.00;100848.19;10371259;28;20094;-72
2022/12/12 06:43:39;;;;;;;9.20;8.30;;;;;;;-6.21;100.00;100854.50;10372975;28;20411;-73
2022/12/12 06:48:41;;;;;;;11.65;7.93;;;;;;;-6.12;100.00;100860.66;10372107;28;20068;-72
2022/12/12 06:53:44;;;;;;;8.27;7.47;;;;;;;-6.18;100.00;100870.63;10373102;28;20085;-72
2022/12/12 06:58:49;;;;;;;19.63;7.18;;;;;;;-6.26;100.00;100868.75;10372670;28;20088;-72
2022/12/12 07:03:53;;;;;;;7.32;6.60;;;;;;;-6.34;100.00;100876.16;10372271;28;20169;-72
2022/12/12 07:08:55;;;;;;;9.25;8.10;;;;;;;-6.11;100.00;100875.06;10370053;28;20075;-72
2022/12/12 07:13:58;;;;;;;13.20;7.30;;;;;;;-5.98;100.00;100887.28;10371921;28;20594;-72
2022/12/12 07:19:00;;;;;;;9.77;7.55;;;;;;;-5.96;100.00;100888.16;10372050;28;20183;-72
2022/12/12 07:24:02;;;;;;;20.85;8.73;;;;;;;-5.96;100.00;100888.16;10371787;28;20070;-72
2022/12/12 07:29:05;;;;;;;9.70;8.73;;;;;;;-6.01;100.00;100893.94;10371926;28;20077;-73
2022/12/12 07:34:08;;;;;;;13.88;8.77;;;;;;;-6.09;100.00;100897.16;10371509;28;20084;-72
2022/12/12 07:39:10;;;;;;;8.55;7.78;;;;;;;-6.12;100.00;100906.38;10368730;28;20086;-72
2022/12/12 07:44:13;;;;;;;11.02;8.38;;;;;;;-6.27;100.00;100907.69;10371411;28;20077;-72
2022/12/12 07:49:15;;;;;;;11.80;8.07;;;;;;;-6.42;100.00;100902.16;10370940;28;20132;-72
2022/12/12 07:54:17;;;;;;;9.00;8.23;;;;;;;-6.35;100.00;100915.09;10370651;28;20523;-72
2022/12/12 07:59:20;;;;;;;12.63;7.38;;;;;;;-6.35;100.00;100922.72;10370681;28;20429;-72
2022/12/12 08:04:22;;;;;;;8.50;7.72;;;;;;;-6.31;100.00;100935.47;10370635;28;20381;-72
2022/12/12 08:09:24;;;;;;;8.50;7.80;;;;;;;-6.35;100.00;100934.53;10368486;28;20068;-71
2022/12/12 08:14:28;;;;;;;7.53;7.03;;;;;;;-6.34;100.00;100936.25;10370774;28;20079;-71
2022/12/12 08:19:31;;;;;;;8.45;7.25;;;;;;;-6.27;100.00;100943.25;10370539;28;20092;-72
2022/12/12 08:24:33;;;;;;;8.70;7.85;;;;;;;-6.16;100.00;100940.16;10370206;28;20438;-72
2022/12/12 08:29:37;;;;;;;6.85;6.28;;;;;;;-6.03;100.00;100937.09;10370844;28;20073;-72
2022/12/12 08:34:38;;;;;;;7.95;7.30;;;;;;;-5.86;100.00;100944.31;10370356;28;20075;-72
2022/12/12 08:39:40;;;;;;;6.93;6.40;;;;;;;-5.74;100.00;100948.88;10367471;28;20144;-72
2022/12/12 08:44:43;;;;;;;7.93;7.25;;;;;;;-5.60;100.00;100951.78;10370061;28;20072;-72
2022/12/12 08:49:45;;;;;;;9.93;8.52;;;;;;;-5.46;100.00;100942.81;10369639;28;20431;-71
2022/12/12 08:54:47;;;;;;;9.38;8.43;;;;;;;-5.31;100.00;100941.47;10369809;28;20078;-71
2022/12/12 08:59:51;;;;;;;9.75;7.03;;;;;;;-5.20;100.00;100949.38;10369772;28;20087;-72
2022/12/12 09:04:53;;;;;;;8.18;7.28;;;;;;;-5.06;100.00;100950.56;10369686;28;20095;-72
2022/12/12 09:09:55;;;;;;;11.73;9.63;;;;;;;-4.97;100.00;100956.69;10368030;28;20063;-71
2022/12/12 09:14:58;;;;;;;7.93;7.22;;;;;;;-4.83;100.00;100959.59;10377101;28;20067;-72
2022/12/12 09:19:59;;;;;;;11.60;7.85;;;;;;;-4.61;100.00;100967.69;10376641;28;20081;-71
2022/12/12 09:25:01;;;;;;;12.15;8.93;;;;;;;-4.47;100.00;100963.78;10376732;28;20067;-72
2022/12/12 09:30:05;;;;;;;9.05;8.23;;;;;;;-4.31;100.00;100957.28;10376159;28;20534;-71
2022/12/12 09:35:08;;;;;;;9.63;7.60;;;;;;;-4.10;100.00;100967.91;10376013;28;20073;-71
2022/12/12 09:40:17;;;;;;;9.10;8.18;;;;;;;-3.94;100.00;100957.19;10373600;28;20173;-70
2022/12/12 09:45:21;;;;;;;8.45;7.32;;;;;;;-3.79;100.00;100955.75;10375779;28;20118;-71
2022/12/12 09:50:31;;;;;;;13.27;10.50;;;;;;;-3.28;100.00;100959.19;10375768;28;20066;-70
2022/12/12 09:55:46;;;;;;;13.23;11.82;;;;;;;-1.68;100.00;100957.03;10375411;28;20089;-71
2022/12/12 10:01:01;;;;;;;18.50;13.07;;;;;;;-0.65;100.00;100958.72;10373873;28;20496;-71
2022/12/12 10:06:07;;;;;;;13.13;11.85;;;;;;;-0.04;100.00;100956.47;10372922;28;20691;-72
2022/12/12 10:16:33;;;;;;;11.80;8.13;;;;;;;1.45;100.00;100953.94;10372419;28;20564;-72
2022/12/12 10:21:39;;;;;;;14.18;9.85;;;;;;;1.42;100.00;100959.97;10373582;28;20076;-71
2022/12/12 10:26:42;;;;;;;18.92;9.77;;;;;;;1.05;100.00;100953.16;10374166;28;20072;-72
2022/12/12 10:32:03;;;;;;;21.70;10.95;;;;;;;2.00;100.00;100960.63;10374724;28;20122;-71
2022/12/12 10:37:27;;;;;;;10.05;7.35;;;;;;;1.82;93.93;100952.97;10373560;28;20060;-73
2022/12/12 10:42:37;;;;;;;14.77;8.88;;;;;;;2.19;95.39;100939.94;10370997;28;20046;-72
2022/12/12 10:47:40;;;;;;;14.30;8.65;;;;;;;2.93;96.86;100932.50;10373724;28;20061;-74
2022/12/12 10:52:42;;;;;;;15.02;8.75;;;;;;;1.81;90.10;100939.22;10373300;28;20053;-73
2022/12/12 10:57:44;;;;;;;15.52;8.73;;;;;;;1.98;91.70;100938.31;10373775;28;20049;-72
2022/12/12 11:02:47;;;;;;;12.50;8.93;;;;;;;3.02;90.72;100940.16;10372237;28;20587;-73
2022/12/12 11:08:02;;;;;;;14.52;8.00;;;;;;;3.33;87.61;100937.28;10372357;28;20060;-72
2022/12/12 11:13:16;;;;;;;20.00;9.48;;;;;;;2.83;89.10;100934.28;10369686;28;20095;-75
2022/12/12 11:18:23;;;;;;;20.08;9.27;;;;;;;1.64;92.02;100931.63;10372464;28;20083;-72
2022/12/12 11:23:29;;;;;;;16.77;9.00;;;;;;;1.38;86.55;100922.25;10371727;28;20464;-74
2022/12/12 11:28:35;;;;;;;17.90;8.93;;;;;;;0.76;92.21;100918.91;10371728;28;20050;-74
2022/12/12 11:33:47;;;;;;;16.35;8.93;;;;;;;-0.19;94.45;100916.22;10372331;28;20118;-71
2022/12/12 11:38:53;;;;;;;17.45;8.43;;;;;;;-0.64;96.31;100916.03;10369366;28;20104;-71
2022/12/12 11:44:00;;;;;;;11.55;7.93;;;;;;;-0.74;98.08;100911.69;10371945;28;20064;-69
2022/12/12 11:49:05;;;;;;;11.77;6.85;;;;;;;-0.80;96.68;100908.25;10371138;28;20067;-69
2022/12/12 11:54:13;;;;;;;12.13;7.20;;;;;;;-0.70;98.06;100900.59;10370677;28;20062;-69
2022/12/12 11:59:48;;;;;;;10.73;7.15;;;;;;;-0.76;96.31;100903.16;10371107;28;20084;-69
2022/12/12 12:05:04;;;;;;;10.90;6.05;;;;;;;-0.67;98.29;100896.38;10371067;28;20092;-70
2022/12/12 12:10:18;;;;;;;5.38;4.72;;;;;;;-0.56;98.41;100898.97;10368972;28;20069;-69
2022/12/12 12:15:39;;;;;;;10.27;5.85;;;;;;;-0.50;97.31;100893.00;10370316;28;20068;-70
2022/12/12 12:21:09;;;;;;;5.85;5.15;;;;;;;-0.37;93.51;100896.50;10370187;28;20175;-69
2022/12/12 12:26:23;;;;;;;6.30;4.53;;;;;;;-0.39;91.61;100890.47;10371034;28;20117;-69
2022/12/12 12:31:34;;;;;;;10.50;5.38;;;;;;;-0.27;93.07;100895.66;10370890;28;20076;-69
2022/12/12 12:36:58;;;;;;;7.28;4.93;;;;;;;-0.10;92.46;100892.28;10370023;28;20527;-69
2022/12/12 12:42:21;;;;;;;8.55;6.07;;;;;;;0.06;95.62;100879.47;10367782;28;20082;-70
2022/12/12 12:47:37;;;;;;;8.15;5.30;;;;;;;0.16;88.54;100876.09;10376780;28;20070;-69
2022/12/12 12:52:48;;;;;;;7.18;4.55;;;;;;;0.84;86.20;100882.09;10378473;28;20072;-70
2022/12/12 12:57:51;;;;;;;7.47;5.47;;;;;;;2.71;88.13;100881.16;10377931;28;20060;-70
2022/12/12 13:03:01;;;;;;;7.05;5.03;;;;;;;3.80;77.73;100882.50;10376922;28;20103;-68
2022/12/12 13:08:20;;;;;;;12.60;4.65;;;;;;;4.72;79.30;100882.88;10377491;28;20064;-69
2022/12/12 13:13:27;;;;;;;6.28;4.68;;;;;;;5.20;72.48;100878.53;10376501;28;20068;-70
2022/12/12 13:18:33;;;;;;;10.13;5.18;;;;;;;5.31;68.86;100874.03;10376871;28;20042;-69
2022/12/12 13:23:56;;;;;;;8.00;5.13;;;;;;;4.19;66.31;100875.94;10376539;28;20477;-69
2022/12/12 13:29:03;;;;;;;;;;;;;;;4.49;66.60;100871.19;10377092;28;20117;-72
2022/12/12 13:34:10;;;;;;;8.27;4.65;;;;;;;3.84;64.83;100863.50;10377414;28;19975;-74
2022/12/12 13:39:29;;;;;;;6.53;5.20;;;;;;;3.70;72.46;100861.13;10372454;28;20078;-72
2022/12/12 13:44:38;;;;;;;7.80;5.75;;;;;;;3.96;70.68;100861.63;10374785;28;20103;-72
2022/12/12 13:49:52;;;;;;;4.70;3.88;;;;;;;2.99;74.82;100873.16;10336303;28;20085;-78
2022/12/12 13:55:22;;;;;;;6.68;4.85;;;;;;;2.73;68.81;100868.25;10364784;28;20556;-72
2022/12/12 14:00:25;;;;;;;8.02;4.70;;;;;;;2.24;78.09;100857.47;10376337;28;20053;-70
2022/12/12 14:05:32;;;;;;;5.32;4.05;;;;;;;1.38;74.08;100856.25;10375106;28;20054;-70
2022/12/12 14:10:40;;;;;;;8.27;4.95;;;;;;;1.18;82.23;100866.59;10374314;28;20060;-69
2022/12/12 14:15:44;;;;;;;7.00;4.93;;;;;;;0.80;83.82;100859.81;10374732;28;20512;-68
2022/12/12 14:20:59;;;;;;;4.30;3.90;;;;;;;0.51;87.16;100861.53;10375927;28;20081;-69
2022/12/12 14:26:40;;;;;;;6.82;4.03;;;;;;;0.23;89.84;100872.69;10375160;28;20485;-69
2022/12/12 14:31:51;;;;;;;5.65;4.40;;;;;;;0.11;88.21;100881.22;10365284;28;20534;-69
2022/12/12 14:37:41;;;;;;;4.75;4.00;;;;;;;0.14;90.58;100882.06;10373619;28;20136;-69
2022/12/12 14:42:52;;;;;;;8.23;4.85;;;;;;;-0.17;92.57;100890.56;10370307;28;20096;-69
2022/12/12 14:48:18;;;;;;;7.97;5.28;;;;;;;-0.43;95.68;100892.19;10374494;28;20069;-68
2022/12/12 14:53:23;;;;;;;6.20;3.83;;;;;;;-0.67;97.82;100892.94;10372801;28;20066;-69
2022/12/12 14:58:32;;;;;;;5.28;4.10;;;;;;;-1.05;99.17;100886.75;10374459;28;20064;-69
2022/12/12 15:03:41;;;;;;;9.20;4.10;;;;;;;-1.27;99.86;100885.75;10372592;28;20096;-69
2022/12/12 15:08:43;;;;;;;4.55;3.97;;;;;;;-1.37;100.00;100885.66;10371330;28;20069;-68
2022/12/12 15:14:00;;;;;;;3.80;3.47;;;;;;;-1.66;100.00;100882.84;10364057;28;20134;-69
2022/12/12 15:19:02;;;;;;;4.88;4.45;;;;;;;-1.99;100.00;100896.19;10351762;28;20088;-68
2022/12/12 15:24:05;;;;;;;6.43;4.20;;;;;;;-2.34;100.00;100900.09;10385294;28;20076;-69
2022/12/12 15:29:18;;;;;;;3.45;3.17;;;;;;;-2.66;100.00;100905.66;10410387;28;20072;-69
2022/12/12 15:34:40;;;;;;;4.28;3.88;;;;;;;-2.98;100.00;100903.47;10371854;28;20110;-69
2022/12/12 15:39:41;;;;;;;6.75;4.88;;;;;;;-3.18;100.00;100906.59;10328674;28;20120;-70
2022/12/12 15:44:51;;;;;;;5.50;5.07;;;;;;;-3.45;100.00;100910.44;10330750;28;20528;-69
2022/12/12 15:49:53;;;;;;;4.57;4.18;;;;;;;-3.56;100.00;100907.69;10329937;28;20550;-69
2022/12/12 15:54:57;;;;;;;;;;;;;;;-3.52;100.00;100908.63;10331045;28;20071;-69
2022/12/12 16:00:07;;;;;;;3.45;3.17;;;;;;;-3.74;100.00;100918.44;10330653;28;19962;-69
2022/12/12 16:05:29;;;;;;;7.20;5.22;;;;;;;-3.95;100.00;100929.09;10330498;28;20118;-69
2022/12/12 16:10:31;;;;;;;4.45;4.00;;;;;;;-3.81;100.00;100931.91;10327647;28;20074;-69
2022/12/12 16:15:37;;;;;;;5.35;4.28;;;;;;;-4.06;100.00;100937.41;10330494;28;20092;-70
2022/12/12 16:20:46;;;;;;;5.07;4.13;;;;;;;-4.14;100.00;100927.06;10333682;28;20444;-69
2022/12/12 16:25:49;;;;;;;5.78;4.80;;;;;;;-3.96;100.00;100920.59;10338184;28;20532;-70
2022/12/12 16:30:57;;;;;;;6.93;5.53;;;;;;;-4.16;100.00;100910.88;10338723;28;20074;-70
2022/12/12 16:36:01;;;;;;;6.40;5.07;;;;;;;-4.32;100.00;100914.81;10337596;28;20434;-70
2022/12/12 16:41:10;;;;;;;5.78;5.30;;;;;;;-4.35;100.00;100913.91;10335416;28;20097;-70
2022/12/12 16:46:20;;;;;;;5.57;5.18;;;;;;;-4.41;100.00;100905.28;10337402;28;20526;-70
2022/12/12 16:51:28;;;;;;;7.38;5.90;;;;;;;-4.56;100.00;100905.81;10337903;28;20098;-70
2022/12/12 16:56:30;;;;;;;11.07;5.95;;;;;;;-4.60;100.00;100908.28;10337275;28;20079;-69
2022/12/12 17:01:33;;;;;;;6.65;6.03;;;;;;;-4.72;100.00;100919.91;10335452;28;20090;-70
2022/12/12 17:06:35;;;;;;;9.75;7.60;;;;;;;-4.87;100.00;100911.94;10334947;28;20097;-70
2022/12/12 17:11:37;;;;;;;13.18;6.75;;;;;;;-4.84;100.00;100912.00;10332583;28;20190;-70
2022/12/12 17:16:41;;;;;;;5.65;5.20;;;;;;;-4.68;100.00;100911.50;10335368;28;20074;-70
2022/12/12 17:21:43;;;;;;;6.18;5.60;;;;;;;-4.77;100.00;100913.88;10334268;28;20099;-70
2022/12/12 17:26:45;;;;;;;6.75;6.10;;;;;;;-4.95;100.00;100927.91;10334849;28;20076;-70
2022/12/12 17:31:50;;;;;;;5.68;5.10;;;;;;;-5.08;100.00;100920.81;10333259;28;20079;-71
2022/12/12 17:36:51;;;;;;;7.55;6.20;;;;;;;-5.15;100.00;100911.31;10334540;28;20078;-71
2022/12/12 17:41:53;;;;;;;6.63;5.95;;;;;;;-5.17;100.00;100911.25;10331192;28;20089;-71
2022/12/12 17:46:56;;;;;;;10.82;7.78;;;;;;;-5.30;100.00;100905.03;10333678;28;20074;-70
2022/12/12 17:51:58;;;;;;;7.72;6.55;;;;;;;-5.37;100.00;100903.16;10333122;28;20074;-71
2022/12/12 17:57:00;;;;;;;9.68;8.13;;;;;;;-5.49;100.00;100907.13;10334102;28;20081;-71
2022/12/12 18:02:04;;;;;;;7.55;6.88;;;;;;;-5.59;100.00;100913.66;10333129;28;20116;-71
2022/12/12 18:07:07;;;;;;;10.35;8.65;;;;;;;-5.60;100.00;100916.19;10332878;28;20468;-71
2022/12/12 18:12:09;;;;;;;11.63;7.32;;;;;;;-5.51;100.00;100908.75;10330532;28;20076;-71
2022/12/12 18:17:14;;;;;;;14.95;7.90;;;;;;;-5.46;100.00;100909.75;10333016;28;20072;-70
2022/12/12 18:22:16;;;;;;;9.88;8.07;;;;;;;-5.62;100.00;100912.72;10333585;28;20091;-70
2022/12/12 18:27:18;;;;;;;10.48;7.15;;;;;;;-5.59;100.00;100907.72;10332809;28;20078;-71
2022/12/12 18:32:22;;;;;;;11.25;9.02;;;;;;;-5.63;100.00;100908.47;10365897;28;20070;-71
2022/12/12 18:37:24;;;;;;;8.20;6.15;;;;;;;-5.66;100.00;100914.34;10372676;28;20074;-71
2022/12/12 18:42:26;;;;;;;7.80;7.13;;;;;;;-5.71;100.00;100906.56;10369477;28;20083;-72
2022/12/12 18:47:29;;;;;;;13.88;7.93;;;;;;;-5.85;100.00;100910.47;10372349;28;20070;-71
2022/12/12 18:52:33;;;;;;;8.38;7.15;;;;;;;-5.91;100.00;100913.69;10371480;28;20070;-72
2022/12/12 18:57:35;;;;;;;11.75;8.18;;;;;;;-5.72;100.00;100898.91;10371464;28;20486;-71
2022/12/12 19:02:39;;;;;;;11.82;9.30;;;;;;;-5.62;100.00;100903.41;10371797;28;20095;-72
2022/12/12 19:07:42;;;;;;;10.05;7.47;;;;;;;-5.50;100.00;100902.88;10371296;28;20068;-72
2022/12/12 19:12:44;;;;;;;8.65;7.78;;;;;;;-5.59;100.00;100897.53;10368976;28;20078;-71
2022/12/12 19:17:47;;;;;;;14.77;9.18;;;;;;;-5.81;100.00;100907.19;10371084;28;20105;-72
2022/12/12 19:22:50;;;;;;;12.32;9.48;;;;;;;-5.88;100.00;100911.25;10370857;28;20097;-72
2022/12/12 19:27:52;;;;;;;17.77;10.50;;;;;;;-5.96;100.00;100913.56;10371209;28;20079;-73
2022/12/12 19:32:56;;;;;;;10.68;9.18;;;;;;;-6.09;100.00;100922.56;10365156;28;20270;-73
2022/12/12 19:37:58;;;;;;;9.85;7.40;;;;;;;-5.95;100.00;100919.53;10370212;28;20064;-72
2022/12/12 19:43:00;;;;;;;10.02;7.20;;;;;;;-6.09;100.00;100924.28;10339050;28;20431;-73
2022/12/12 19:48:03;;;;;;;9.40;8.50;;;;;;;-6.12;100.00;100926.72;10329373;28;20595;-73
2022/12/12 19:53:05;;;;;;;14.77;8.63;;;;;;;-6.15;100.00;100926.63;10329670;28;20167;-73
2022/12/12 19:58:07;;;;;;;8.18;7.47;;;;;;;-5.89;100.00;100918.84;10329587;28;20122;-72
2022/12/12 20:03:10;;;;;;;16.17;10.00;;;;;;;-6.05;100.00;100908.28;10328519;28;20099;-72
2022/12/12 20:08:13;;;;;;;10.45;8.98;;;;;;;-6.10;100.00;100917.44;10328983;28;20080;-74
2022/12/12 20:13:14;;;;;;;11.88;9.98;;;;;;;-6.13;100.00;100914.84;10331639;28;20101;-73
2022/12/12 20:18:17;;;;;;;11.63;10.15;;;;;;;-6.11;100.00;100908.97;10329048;28;20471;-73
2022/12/12 20:23:19;;;;;;;10.15;8.77;;;;;;;-6.22;100.00;100913.75;10330295;28;20143;-72
2022/12/12 20:28:21;;;;;;;9.50;8.15;;;;;;;-6.21;100.00;100912.94;10330379;28;20091;-73
2022/12/12 20:33:24;;;;;;;11.90;8.77;;;;;;;-6.36;100.00;100918.44;10330952;28;20122;-72
2022/12/12 20:38:28;;;;;;;8.63;7.57;;;;;;;-6.42;100.00;100917.41;10327632;28;20521;-73
2022/12/12 20:43:29;;;;;;;9.52;8.43;;;;;;;-6.33;100.00;100912.59;10329826;28;20087;-73
2022/12/12 20:48:34;;;;;;;13.50;9.80;;;;;;;-6.41;100.00;100929.28;10329779;28;20126;-73
2022/12/12 20:53:36;;;;;;;11.80;10.50;;;;;;;-6.52;100.00;100934.06;10329313;28;20560;-73
2022/12/12 20:58:39;;;;;;;12.98;10.75;;;;;;;-6.52;100.00;100940.00;10329316;28;20489;-74
2022/12/12 21:03:43;;;;;;;10.77;9.32;;;;;;;-6.51;100.00;100934.09;10329124;28;20101;-73
2022/12/12 21:08:47;;;;;;;17.65;8.68;;;;;;;-6.60;100.00;100939.75;10332052;28;20076;-73
2022/12/12 21:13:50;;;;;;;9.02;8.18;;;;;;;-6.38;100.00;100935.31;10336322;28;20528;-74
2022/12/12 21:18:56;;;;;;;10.18;7.53;;;;;;;-6.49;100.00;100942.63;10336706;28;20162;-74
2022/12/12 21:23:58;;;;;;;9.00;7.93;;;;;;;-6.44;100.00;100940.22;10335722;28;20141;-73
2022/12/12 21:29:01;;;;;;;9.48;8.50;;;;;;;-6.52;100.00;100934.06;10336246;28;20072;-74
2022/12/12 21:34:06;;;;;;;10.20;8.73;;;;;;;-6.31;100.00;100931.28;10334974;28;20423;-73
2022/12/12 21:39:08;;;;;;;14.30;8.57;;;;;;;-6.47;100.00;100938.44;10332825;28;20073;-74
2022/12/12 21:44:10;;;;;;;16.33;11.93;;;;;;;-6.65;100.00;100942.97;10335316;28;20136;-73
2022/12/12 21:49:25;;;;;;;;;;;;;;;-6.79;100.00;100942.56;10334953;28;20122;-73
2022/12/12 21:54:29;;;;;;;10.15;8.07;;;;;;;-6.89;100.00;100932.13;10334926;28;20003;-75
2022/12/12 21:59:31;;;;;;;9.73;7.65;;;;;;;-6.74;100.00;100936.81;10334084;28;20129;-75
2022/12/12 22:04:34;;;;;;;8.75;7.78;;;;;;;-6.86;100.00;100937.31;10334075;28;20132;-74
2022/12/12 22:09:38;;;;;;;7.88;7.28;;;;;;;-6.83;100.00;100931.47;10331786;28;20075;-74
2022/12/12 22:14:40;;;;;;;8.80;8.00;;;;;;;-6.78;100.00;100932.47;10333911;28;20074;-75
2022/12/12 22:19:44;;;;;;;7.68;6.90;;;;;;;-6.95;100.00;100941.25;10333454;28;20101;-75
2022/12/12 22:24:46;;;;;;;7.63;6.80;;;;;;;-6.89;100.00;100938.88;10334508;28;20079;-75
2022/12/12 22:29:49;;;;;;;8.60;7.80;;;;;;;-6.85;100.00;100938.16;10334005;28;20075;-74
2022/12/12 22:34:53;;;;;;;8.27;7.50;;;;;;;-6.99;100.00;100936.06;10333761;28;20517;-74
2022/12/12 22:39:54;;;;;;;8.45;6.93;;;;;;;-7.00;100.00;100936.88;10330837;28;20125;-74
2022/12/12 22:44:56;;;;;;;8.32;7.60;;;;;;;-6.91;100.00;100930.38;10333609;28;20105;-73
2022/12/12 22:49:59;;;;;;;7.10;6.47;;;;;;;-6.99;100.00;100936.06;10332696;28;20523;-73
2022/12/12 22:55:01;;;;;;;7.50;6.25;;;;;;;-7.13;100.00;100927.16;10332469;28;20095;-73
2022/12/12 23:00:04;;;;;;;6.28;5.88;;;;;;;-6.94;100.00;100922.66;10332452;28;20063;-75
2022/12/12 23:05:08;;;;;;;11.00;7.43;;;;;;;-6.93;100.00;100915.09;10332193;28;20502;-74
2022/12/12 23:10:10;;;;;;;10.80;7.90;;;;;;;-7.07;100.00;100914.66;10329767;28;20074;-74
2022/12/12 23:15:12;;;;;;;7.43;6.85;;;;;;;-7.20;100.00;100908.34;10331592;28;20072;-73
2022/12/12 23:20:15;;;;;;;6.88;6.07;;;;;;;-7.25;100.00;100908.19;10331986;28;20096;-74
2022/12/12 23:25:17;;;;;;;7.75;7.03;;;;;;;-7.29;100.00;100906.38;10331019;28;20498;-74
2022/12/12 23:30:19;;;;;;;7.35;6.68;;;;;;;-7.41;100.00;100900.91;10331414;28;20068;-74
2022/12/12 23:35:22;;;;;;;7.72;6.93;;;;;;;-7.50;100.00;100896.38;10330851;28;20486;-73
2022/12/12 23:40:24;;;;;;;12.10;6.35;;;;;;;-7.54;100.00;100895.44;10328368;28;20099;-73